sensor_id;sensor_type;location;lat;lon;timestamp;temperature;humidity
30148;DHT22;16960;49.404;8.248;2022-10-16T00:02:17;21.40;55.50
30148;DHT22;16960;49.404;8.248;2022-10-16T00:04:44;21.40;55.50
30148;DHT22;16960;49.404;8.248;2022-10-16T00:07:13;21.40;55.50
30148;DHT22;16960;49.404;8.248;2022-10-16T00:09:39;21.40;55.50
30148;DHT22;16960;49.404;8.248;2022-10-16T00:12:06;21.40;55.40
30148;DHT22;16960;49.404;8.248;2022-10-16T00:14:34;21.40;55.40
30148;DHT22;16960;49.404;8.248;2022-10-16T00:17:00;21.40;55.40
30148;DHT22;16960;49.404;8.248;2022-10-16T00:19:27;21.40;55.40
30148;DHT22;16960;49.404;8.248;2022-10-16T00:21:54;21.40;55.30
30148;DHT22;16960;49.404;8.248;2022-10-16T00:24:22;21.40;55.30
30148;DHT22;16960;49.404;8.248;2022-10-16T00:26:50;21.40;55.30
30148;DHT22;16960;49.404;8.248;2022-10-16T00:29:17;21.40;55.30
30148;DHT22;16960;49.404;8.248;2022-10-16T00:31:44;21.40;55.30
30148;DHT22;16960;49.404;8.248;2022-10-16T00:34:11;21.40;55.30
30148;DHT22;16960;49.404;8.248;2022-10-16T00:36:38;21.30;55.30
30148;DHT22;16960;49.404;8.248;2022-10-16T00:39:05;21.40;55.20
30148;DHT22;16960;49.404;8.248;2022-10-16T00:41:33;21.40;55.10
30148;DHT22;16960;49.404;8.248;2022-10-16T00:44:01;21.40;55.20
30148;DHT22;16960;49.404;8.248;2022-10-16T00:46:35;21.40;55.30
30148;DHT22;16960;49.404;8.248;2022-10-16T00:49:05;21.30;56.00
30148;DHT22;16960;49.404;8.248;2022-10-16T00:51:34;21.30;55.30
30148;DHT22;16960;49.404;8.248;2022-10-16T00:54:04;21.30;55.40
30148;DHT22;16960;49.404;8.248;2022-10-16T00:56:33;21.30;55.40
30148;DHT22;16960;49.404;8.248;2022-10-16T00:59:02;21.30;55.40
30148;DHT22;16960;49.404;8.248;2022-10-16T01:01:30;21.30;55.50
30148;DHT22;16960;49.404;8.248;2022-10-16T01:03:57;21.30;56.20
30148;DHT22;16960;49.404;8.248;2022-10-16T01:06:28;21.30;55.50
30148;DHT22;16960;49.404;8.248;2022-10-16T01:09:11;21.30;55.50
30148;DHT22;16960;49.404;8.248;2022-10-16T01:11:45;21.30;55.50
30148;DHT22;16960;49.404;8.248;2022-10-16T01:14:21;21.30;55.70
30148;DHT22;16960;49.404;8.248;2022-10-16T01:16:53;21.30;55.50
30148;DHT22;16960;49.404;8.248;2022-10-16T01:19:32;21.30;55.40
30148;DHT22;16960;49.404;8.248;2022-10-16T01:22:03;21.30;55.40
30148;DHT22;16960;49.404;8.248;2022-10-16T01:24:35;21.30;55.40
30148;DHT22;16960;49.404;8.248;2022-10-16T01:27:12;21.30;55.40
30148;DHT22;16960;49.404;8.248;2022-10-16T01:29:44;21.30;55.40
30148;DHT22;16960;49.404;8.248;2022-10-16T01:32:17;21.30;55.40
30148;DHT22;16960;49.404;8.248;2022-10-16T01:34:50;21.20;55.30
30148;DHT22;16960;49.404;8.248;2022-10-16T01:37:36;21.30;55.40
30148;DHT22;16960;49.404;8.248;2022-10-16T01:40:09;21.30;56.10
30148;DHT22;16960;49.404;8.248;2022-10-16T01:42:41;21.30;55.40
30148;DHT22;16960;49.404;8.248;2022-10-16T01:45:12;21.20;55.30
30148;DHT22;16960;49.404;8.248;2022-10-16T01:47:40;21.30;55.50
30148;DHT22;16960;49.404;8.248;2022-10-16T01:50:09;21.30;55.50
30148;DHT22;16960;49.404;8.248;2022-10-16T01:52:39;21.20;55.30
30148;DHT22;16960;49.404;8.248;2022-10-16T01:55:10;21.20;55.30
30148;DHT22;16960;49.404;8.248;2022-10-16T01:57:44;21.30;55.40
30148;DHT22;16960;49.404;8.248;2022-10-16T02:00:13;21.20;56.00
30148;DHT22;16960;49.404;8.248;2022-10-16T02:02:42;21.20;55.30
30148;DHT22;16960;49.404;8.248;2022-10-16T02:05:15;21.20;55.30
30148;DHT22;16960;49.404;8.248;2022-10-16T02:07:44;21.20;55.30
30148;DHT22;16960;49.404;8.248;2022-10-16T02:10:11;21.20;55.20
30148;DHT22;16960;49.404;8.248;2022-10-16T02:12:43;21.20;55.20
30148;DHT22;16960;49.404;8.248;2022-10-16T02:15:11;21.20;55.20
30148;DHT22;16960;49.404;8.248;2022-10-16T02:17:38;21.20;55.20
30148;DHT22;16960;49.404;8.248;2022-10-16T02:20:05;21.20;55.20
30148;DHT22;16960;49.404;8.248;2022-10-16T02:22:36;21.20;55.10
30148;DHT22;16960;49.404;8.248;2022-10-16T02:25:06;21.20;55.10
30148;DHT22;16960;49.404;8.248;2022-10-16T02:27:40;21.20;55.10
30148;DHT22;16960;49.404;8.248;2022-10-16T02:30:14;21.20;55.10
30148;DHT22;16960;49.404;8.248;2022-10-16T02:32:45;21.20;55.00
30148;DHT22;16960;49.404;8.248;2022-10-16T02:35:13;21.20;55.00
30148;DHT22;16960;49.404;8.248;2022-10-16T02:37:42;21.20;55.00
30148;DHT22;16960;49.404;8.248;2022-10-16T02:40:10;21.20;55.10
30148;DHT22;16960;49.404;8.248;2022-10-16T02:42:39;21.20;55.00
30148;DHT22;16960;49.404;8.248;2022-10-16T02:45:09;21.20;55.00
30148;DHT22;16960;49.404;8.248;2022-10-16T02:47:36;21.20;55.00
30148;DHT22;16960;49.404;8.248;2022-10-16T02:50:04;21.20;55.00
30148;DHT22;16960;49.404;8.248;2022-10-16T02:52:31;21.20;55.00
30148;DHT22;16960;49.404;8.248;2022-10-16T02:54:57;21.20;55.00
30148;DHT22;16960;49.404;8.248;2022-10-16T02:57:24;21.10;55.00
30148;DHT22;16960;49.404;8.248;2022-10-16T02:59:51;21.20;55.00
30148;DHT22;16960;49.404;8.248;2022-10-16T03:02:20;21.20;55.60
30148;DHT22;16960;49.404;8.248;2022-10-16T03:04:47;21.20;55.00
30148;DHT22;16960;49.404;8.248;2022-10-16T03:07:13;21.20;55.00
30148;DHT22;16960;49.404;8.248;2022-10-16T03:09:40;21.20;55.00
30148;DHT22;16960;49.404;8.248;2022-10-16T03:12:08;21.10;55.00
30148;DHT22;16960;49.404;8.248;2022-10-16T03:14:34;21.20;55.00
30148;DHT22;16960;49.404;8.248;2022-10-16T03:17:01;21.20;55.10
30148;DHT22;16960;49.404;8.248;2022-10-16T03:19:30;21.10;55.00
30148;DHT22;16960;49.404;8.248;2022-10-16T03:21:56;21.10;55.00
30148;DHT22;16960;49.404;8.248;2022-10-16T03:24:23;21.10;55.00
30148;DHT22;16960;49.404;8.248;2022-10-16T03:26:50;21.10;55.00
30148;DHT22;16960;49.404;8.248;2022-10-16T03:29:17;21.10;55.10
30148;DHT22;16960;49.404;8.248;2022-10-16T03:31:44;21.10;55.00
30148;DHT22;16960;49.404;8.248;2022-10-16T03:34:11;21.10;55.00
30148;DHT22;16960;49.404;8.248;2022-10-16T03:36:39;21.10;55.00
30148;DHT22;16960;49.404;8.248;2022-10-16T03:39:06;21.10;55.00
30148;DHT22;16960;49.404;8.248;2022-10-16T03:41:33;21.10;55.00
30148;DHT22;16960;49.404;8.248;2022-10-16T03:44:00;21.10;55.00
30148;DHT22;16960;49.404;8.248;2022-10-16T03:46:27;21.10;55.00
30148;DHT22;16960;49.404;8.248;2022-10-16T03:48:54;21.10;55.00
30148;DHT22;16960;49.404;8.248;2022-10-16T03:51:21;21.10;55.00
30148;DHT22;16960;49.404;8.248;2022-10-16T03:53:49;21.10;55.00
30148;DHT22;16960;49.404;8.248;2022-10-16T03:56:16;21.10;55.00
30148;DHT22;16960;49.404;8.248;2022-10-16T03:58:43;21.10;55.00
30148;DHT22;16960;49.404;8.248;2022-10-16T04:01:10;21.10;55.00
30148;DHT22;16960;49.404;8.248;2022-10-16T04:03:36;21.10;55.00
30148;DHT22;16960;49.404;8.248;2022-10-16T04:06:04;21.10;55.00
30148;DHT22;16960;49.404;8.248;2022-10-16T04:08:30;21.10;55.00
30148;DHT22;16960;49.404;8.248;2022-10-16T04:11:01;21.10;55.10
30148;DHT22;16960;49.404;8.248;2022-10-16T04:13:28;21.10;55.00
30148;DHT22;16960;49.404;8.248;2022-10-16T04:15:55;21.10;55.00
30148;DHT22;16960;49.404;8.248;2022-10-16T04:18:22;21.10;55.00
30148;DHT22;16960;49.404;8.248;2022-10-16T04:20:49;21.10;55.00
30148;DHT22;16960;49.404;8.248;2022-10-16T04:23:16;21.00;54.90
30148;DHT22;16960;49.404;8.248;2022-10-16T04:25:43;21.10;55.00
30148;DHT22;16960;49.404;8.248;2022-10-16T04:28:11;21.10;55.00
30148;DHT22;16960;49.404;8.248;2022-10-16T04:30:38;21.10;55.00
30148;DHT22;16960;49.404;8.248;2022-10-16T04:33:05;21.10;55.00
30148;DHT22;16960;49.404;8.248;2022-10-16T04:35:32;21.10;55.00
30148;DHT22;16960;49.404;8.248;2022-10-16T04:37:59;21.10;55.00
30148;DHT22;16960;49.404;8.248;2022-10-16T04:40:26;21.10;55.00
30148;DHT22;16960;49.404;8.248;2022-10-16T04:42:53;21.10;55.00
30148;DHT22;16960;49.404;8.248;2022-10-16T04:45:21;21.10;55.00
30148;DHT22;16960;49.404;8.248;2022-10-16T04:47:48;21.10;55.00
30148;DHT22;16960;49.404;8.248;2022-10-16T04:50:15;21.10;55.00
30148;DHT22;16960;49.404;8.248;2022-10-16T04:52:42;21.10;55.10
30148;DHT22;16960;49.404;8.248;2022-10-16T04:55:09;21.10;55.00
30148;DHT22;16960;49.404;8.248;2022-10-16T04:57:35;21.10;55.00
30148;DHT22;16960;49.404;8.248;2022-10-16T05:00:03;21.10;55.00
30148;DHT22;16960;49.404;8.248;2022-10-16T05:02:31;21.10;55.00
30148;DHT22;16960;49.404;8.248;2022-10-16T05:04:58;21.10;55.00
30148;DHT22;16960;49.404;8.248;2022-10-16T05:07:25;21.10;55.00
30148;DHT22;16960;49.404;8.248;2022-10-16T05:09:52;21.00;54.90
30148;DHT22;16960;49.404;8.248;2022-10-16T05:12:19;21.00;54.90
30148;DHT22;16960;49.404;8.248;2022-10-16T05:14:46;21.00;54.90
30148;DHT22;16960;49.404;8.248;2022-10-16T05:17:13;21.00;54.90
30148;DHT22;16960;49.404;8.248;2022-10-16T05:19:41;21.00;54.90
30148;DHT22;16960;49.404;8.248;2022-10-16T05:22:08;21.00;54.90
30148;DHT22;16960;49.404;8.248;2022-10-16T05:24:35;21.00;54.80
30148;DHT22;16960;49.404;8.248;2022-10-16T05:27:01;21.00;54.80
30148;DHT22;16960;49.404;8.248;2022-10-16T05:29:28;21.00;54.80
30148;DHT22;16960;49.404;8.248;2022-10-16T05:31:56;21.00;54.80
30148;DHT22;16960;49.404;8.248;2022-10-16T05:34:23;21.00;54.80
30148;DHT22;16960;49.404;8.248;2022-10-16T05:36:51;21.00;54.80
30148;DHT22;16960;49.404;8.248;2022-10-16T05:39:18;21.00;54.80
30148;DHT22;16960;49.404;8.248;2022-10-16T05:41:45;21.00;54.80
30148;DHT22;16960;49.404;8.248;2022-10-16T05:44:12;21.10;54.80
30148;DHT22;16960;49.404;8.248;2022-10-16T05:46:38;21.00;54.70
30148;DHT22;16960;49.404;8.248;2022-10-16T05:49:05;21.00;54.70
30148;DHT22;16960;49.404;8.248;2022-10-16T05:51:32;21.00;54.70
30148;DHT22;16960;49.404;8.248;2022-10-16T05:54:00;21.00;54.80
30148;DHT22;16960;49.404;8.248;2022-10-16T05:56:27;21.00;54.70
30148;DHT22;16960;49.404;8.248;2022-10-16T05:58:54;21.10;54.80
30148;DHT22;16960;49.404;8.248;2022-10-16T06:01:21;21.00;54.70
30148;DHT22;16960;49.404;8.248;2022-10-16T06:03:49;21.00;54.80
30148;DHT22;16960;49.404;8.248;2022-10-16T06:06:18;21.00;54.80
30148;DHT22;16960;49.404;8.248;2022-10-16T06:08:46;21.00;54.80
30148;DHT22;16960;49.404;8.248;2022-10-16T06:11:16;21.00;54.70
30148;DHT22;16960;49.404;8.248;2022-10-16T06:13:43;21.00;54.70
30148;DHT22;16960;49.404;8.248;2022-10-16T06:16:12;21.00;54.70
30148;DHT22;16960;49.404;8.248;2022-10-16T06:18:39;21.00;54.70
30148;DHT22;16960;49.404;8.248;2022-10-16T06:21:09;21.00;54.70
30148;DHT22;16960;49.404;8.248;2022-10-16T06:23:37;21.00;54.70
30148;DHT22;16960;49.404;8.248;2022-10-16T06:26:05;21.00;54.70
30148;DHT22;16960;49.404;8.248;2022-10-16T06:28:33;21.00;54.70
30148;DHT22;16960;49.404;8.248;2022-10-16T06:31:01;21.00;55.10
30148;DHT22;16960;49.404;8.248;2022-10-16T06:33:28;21.00;54.60
30148;DHT22;16960;49.404;8.248;2022-10-16T06:36:00;21.00;54.60
30148;DHT22;16960;49.404;8.248;2022-10-16T06:38:27;21.00;54.70
30148;DHT22;16960;49.404;8.248;2022-10-16T06:40:54;21.00;54.80
30148;DHT22;16960;49.404;8.248;2022-10-16T06:43:21;21.00;54.90
30148;DHT22;16960;49.404;8.248;2022-10-16T06:45:52;21.00;55.00
30148;DHT22;16960;49.404;8.248;2022-10-16T06:48:19;21.00;55.10
30148;DHT22;16960;49.404;8.248;2022-10-16T06:50:55;21.00;55.30
30148;DHT22;16960;49.404;8.248;2022-10-16T06:53:22;21.00;55.50
30148;DHT22;16960;49.404;8.248;2022-10-16T06:55:49;21.00;55.70
30148;DHT22;16960;49.404;8.248;2022-10-16T06:58:17;21.00;55.90
30148;DHT22;16960;49.404;8.248;2022-10-16T07:00:44;21.00;56.00
30148;DHT22;16960;49.404;8.248;2022-10-16T07:03:13;21.00;56.00
30148;DHT22;16960;49.404;8.248;2022-10-16T07:05:41;21.00;56.60
30148;DHT22;16960;49.404;8.248;2022-10-16T07:08:08;21.00;56.40
30148;DHT22;16960;49.404;8.248;2022-10-16T07:10:35;21.10;56.30
30148;DHT22;16960;49.404;8.248;2022-10-16T07:13:02;21.10;56.30
30148;DHT22;16960;49.404;8.248;2022-10-16T07:15:29;21.10;56.50
30148;DHT22;16960;49.404;8.248;2022-10-16T07:17:56;21.20;56.70
30148;DHT22;16960;49.404;8.248;2022-10-16T07:20:25;21.20;56.40
30148;DHT22;16960;49.404;8.248;2022-10-16T07:22:52;21.20;56.10
30148;DHT22;16960;49.404;8.248;2022-10-16T07:25:19;21.20;56.10
30148;DHT22;16960;49.404;8.248;2022-10-16T07:27:46;21.20;56.10
30148;DHT22;16960;49.404;8.248;2022-10-16T07:30:13;21.20;56.20
30148;DHT22;16960;49.404;8.248;2022-10-16T07:32:40;21.20;56.30
30148;DHT22;16960;49.404;8.248;2022-10-16T07:35:07;21.20;56.50
30148;DHT22;16960;49.404;8.248;2022-10-16T07:37:35;21.10;56.60
30148;DHT22;16960;49.404;8.248;2022-10-16T07:40:03;21.10;56.70
30148;DHT22;16960;49.404;8.248;2022-10-16T07:42:30;21.10;56.80
30148;DHT22;16960;49.404;8.248;2022-10-16T07:44:57;21.10;56.80
30148;DHT22;16960;49.404;8.248;2022-10-16T07:47:23;21.10;56.80
30148;DHT22;16960;49.404;8.248;2022-10-16T07:49:50;21.10;56.80
30148;DHT22;16960;49.404;8.248;2022-10-16T07:52:17;21.10;56.80
30148;DHT22;16960;49.404;8.248;2022-10-16T07:54:45;21.10;57.10
30148;DHT22;16960;49.404;8.248;2022-10-16T07:57:12;21.10;57.00
30148;DHT22;16960;49.404;8.248;2022-10-16T07:59:44;21.20;56.90
30148;DHT22;16960;49.404;8.248;2022-10-16T08:02:11;21.20;57.10
30148;DHT22;16960;49.404;8.248;2022-10-16T08:04:38;21.20;57.00
30148;DHT22;16960;49.404;8.248;2022-10-16T08:07:07;21.20;56.80
30148;DHT22;16960;49.404;8.248;2022-10-16T08:09:34;21.30;57.00
30148;DHT22;16960;49.404;8.248;2022-10-16T08:12:02;21.30;57.10
30148;DHT22;16960;49.404;8.248;2022-10-16T08:14:29;21.30;57.10
30148;DHT22;16960;49.404;8.248;2022-10-16T08:16:56;21.30;56.90
30148;DHT22;16960;49.404;8.248;2022-10-16T08:19:23;21.40;56.80
30148;DHT22;16960;49.404;8.248;2022-10-16T08:21:50;21.40;56.80
30148;DHT22;16960;49.404;8.248;2022-10-16T08:24:17;21.40;56.80
30148;DHT22;16960;49.404;8.248;2022-10-16T08:26:44;21.50;56.70
30148;DHT22;16960;49.404;8.248;2022-10-16T08:29:13;21.50;56.70
30148;DHT22;16960;49.404;8.248;2022-10-16T08:31:40;21.50;56.70
30148;DHT22;16960;49.404;8.248;2022-10-16T08:34:07;21.50;57.20
30148;DHT22;16960;49.404;8.248;2022-10-16T08:36:34;21.50;56.60
30148;DHT22;16960;49.404;8.248;2022-10-16T08:39:01;21.60;56.40
30148;DHT22;16960;49.404;8.248;2022-10-16T08:41:55;21.60;56.30
30148;DHT22;16960;49.404;8.248;2022-10-16T08:44:44;21.60;56.30
30148;DHT22;16960;49.404;8.248;2022-10-16T08:47:17;21.60;56.10
30148;DHT22;16960;49.404;8.248;2022-10-16T08:49:56;21.70;56.20
30148;DHT22;16960;49.404;8.248;2022-10-16T08:52:28;21.70;56.10
30148;DHT22;16960;49.404;8.248;2022-10-16T08:54:56;21.70;56.10
30148;DHT22;16960;49.404;8.248;2022-10-16T08:57:25;21.70;56.00
30148;DHT22;16960;49.404;8.248;2022-10-16T08:59:53;21.70;56.00
30148;DHT22;16960;49.404;8.248;2022-10-16T09:02:30;21.80;55.90
30148;DHT22;16960;49.404;8.248;2022-10-16T09:05:08;21.80;56.00
30148;DHT22;16960;49.404;8.248;2022-10-16T09:07:45;21.80;55.90
30148;DHT22;16960;49.404;8.248;2022-10-16T09:10:21;21.90;56.00
30148;DHT22;16960;49.404;8.248;2022-10-16T09:12:54;21.90;56.20
30148;DHT22;16960;49.404;8.248;2022-10-16T09:15:29;21.90;56.10
30148;DHT22;16960;49.404;8.248;2022-10-16T09:18:01;21.90;56.40
30148;DHT22;16960;49.404;8.248;2022-10-16T09:20:39;21.90;56.60
30148;DHT22;16960;49.404;8.248;2022-10-16T09:23:18;22.00;56.50
30148;DHT22;16960;49.404;8.248;2022-10-16T09:25:47;22.00;56.50
30148;DHT22;16960;49.404;8.248;2022-10-16T09:28:15;22.00;56.30
30148;DHT22;16960;49.404;8.248;2022-10-16T09:30:43;22.10;56.10
30148;DHT22;16960;49.404;8.248;2022-10-16T09:33:12;22.10;55.90
30148;DHT22;16960;49.404;8.248;2022-10-16T09:35:40;22.10;56.30
30148;DHT22;16960;49.404;8.248;2022-10-16T09:38:09;22.10;56.50
30148;DHT22;16960;49.404;8.248;2022-10-16T09:40:46;22.10;56.60
30148;DHT22;16960;49.404;8.248;2022-10-16T09:43:20;22.20;56.60
30148;DHT22;16960;49.404;8.248;2022-10-16T09:45:57;22.20;56.30
30148;DHT22;16960;49.404;8.248;2022-10-16T09:48:28;22.20;56.70
30148;DHT22;16960;49.404;8.248;2022-10-16T09:50:59;22.20;55.80
30148;DHT22;16960;49.404;8.248;2022-10-16T09:53:38;22.40;55.50
30148;DHT22;16960;49.404;8.248;2022-10-16T09:56:06;22.50;55.40
30148;DHT22;16960;49.404;8.248;2022-10-16T09:58:33;22.60;55.00
30148;DHT22;16960;49.404;8.248;2022-10-16T10:01:01;22.60;55.00
30148;DHT22;16960;49.404;8.248;2022-10-16T10:03:35;22.50;55.00
30148;DHT22;16960;49.404;8.248;2022-10-16T10:06:14;22.50;55.10
30148;DHT22;16960;49.404;8.248;2022-10-16T10:08:53;22.60;54.90
30148;DHT22;16960;49.404;8.248;2022-10-16T10:11:48;22.60;54.90
30148;DHT22;16960;49.404;8.248;2022-10-16T10:14:20;22.60;55.10
30148;DHT22;16960;49.404;8.248;2022-10-16T10:16:49;22.60;55.00
30148;DHT22;16960;49.404;8.248;2022-10-16T10:19:18;22.60;54.80
30148;DHT22;16960;49.404;8.248;2022-10-16T10:21:46;22.70;54.90
30148;DHT22;16960;49.404;8.248;2022-10-16T10:24:13;22.60;54.80
30148;DHT22;16960;49.404;8.248;2022-10-16T10:26:48;22.70;54.80
30148;DHT22;16960;49.404;8.248;2022-10-16T10:29:21;22.70;54.60
30148;DHT22;16960;49.404;8.248;2022-10-16T10:32:03;22.70;54.60
30148;DHT22;16960;49.404;8.248;2022-10-16T10:34:51;22.70;54.60
30148;DHT22;16960;49.404;8.248;2022-10-16T10:37:30;22.70;54.50
30148;DHT22;16960;49.404;8.248;2022-10-16T10:40:04;22.80;54.40
30148;DHT22;16960;49.404;8.248;2022-10-16T10:42:37;22.80;54.20
30148;DHT22;16960;49.404;8.248;2022-10-16T10:45:22;22.80;54.10
30148;DHT22;16960;49.404;8.248;2022-10-16T10:48:01;22.80;54.10
30148;DHT22;16960;49.404;8.248;2022-10-16T10:50:36;22.80;53.90
30148;DHT22;16960;49.404;8.248;2022-10-16T10:53:10;22.90;53.90
30148;DHT22;16960;49.404;8.248;2022-10-16T10:55:42;22.90;53.60
30148;DHT22;16960;49.404;8.248;2022-10-16T10:58:24;23.00;53.50
30148;DHT22;16960;49.404;8.248;2022-10-16T11:01:01;23.00;53.40
30148;DHT22;16960;49.404;8.248;2022-10-16T11:06:26;23.10;53.20
30148;DHT22;16960;49.404;8.248;2022-10-16T11:08:59;23.20;53.00
30148;DHT22;16960;49.404;8.248;2022-10-16T11:11:32;23.30;52.80
30148;DHT22;16960;49.404;8.248;2022-10-16T11:14:04;23.40;52.70
30148;DHT22;16960;49.404;8.248;2022-10-16T11:16:38;23.50;52.60
30148;DHT22;16960;49.404;8.248;2022-10-16T11:19:14;23.50;52.50
30148;DHT22;16960;49.404;8.248;2022-10-16T11:21:46;23.50;52.30
30148;DHT22;16960;49.404;8.248;2022-10-16T11:24:20;23.60;52.90
30148;DHT22;16960;49.404;8.248;2022-10-16T11:26:50;23.70;52.20
30148;DHT22;16960;49.404;8.248;2022-10-16T11:29:22;23.70;52.10
30148;DHT22;16960;49.404;8.248;2022-10-16T11:31:54;23.70;52.00
30148;DHT22;16960;49.404;8.248;2022-10-16T11:34:28;23.70;52.00
30148;DHT22;16960;49.404;8.248;2022-10-16T11:37:01;23.70;52.00
30148;DHT22;16960;49.404;8.248;2022-10-16T11:39:30;23.70;52.20
30148;DHT22;16960;49.404;8.248;2022-10-16T11:42:03;23.60;52.10
30148;DHT22;16960;49.404;8.248;2022-10-16T11:44:42;23.60;52.10
30148;DHT22;16960;49.404;8.248;2022-10-16T11:47:26;23.60;52.10
30148;DHT22;16960;49.404;8.248;2022-10-16T11:49:59;23.60;52.10
30148;DHT22;16960;49.404;8.248;2022-10-16T11:52:33;23.60;52.10
30148;DHT22;16960;49.404;8.248;2022-10-16T11:55:13;23.60;52.40
30148;DHT22;16960;49.404;8.248;2022-10-16T11:57:43;23.60;52.50
30148;DHT22;16960;49.404;8.248;2022-10-16T12:00:21;23.60;52.60
30148;DHT22;16960;49.404;8.248;2022-10-16T12:02:54;23.60;53.30
30148;DHT22;16960;49.404;8.248;2022-10-16T12:05:31;23.60;52.70
30148;DHT22;16960;49.404;8.248;2022-10-16T12:08:08;23.60;52.90
30148;DHT22;16960;49.404;8.248;2022-10-16T12:10:38;23.60;53.00
30148;DHT22;16960;49.404;8.248;2022-10-16T12:13:31;23.60;53.00
30148;DHT22;16960;49.404;8.248;2022-10-16T12:16:06;23.60;53.00
30148;DHT22;16960;49.404;8.248;2022-10-16T12:18:33;23.60;52.70
30148;DHT22;16960;49.404;8.248;2022-10-16T12:21:02;23.60;52.80
30148;DHT22;16960;49.404;8.248;2022-10-16T12:23:33;23.60;52.90
30148;DHT22;16960;49.404;8.248;2022-10-16T12:26:04;23.60;53.10
30148;DHT22;16960;49.404;8.248;2022-10-16T12:28:33;23.60;53.20
30148;DHT22;16960;49.404;8.248;2022-10-16T12:31:03;23.70;53.20
30148;DHT22;16960;49.404;8.248;2022-10-16T12:33:33;23.70;53.30
30148;DHT22;16960;49.404;8.248;2022-10-16T12:36:05;23.60;53.00
30148;DHT22;16960;49.404;8.248;2022-10-16T12:38:46;23.70;53.00
30148;DHT22;16960;49.404;8.248;2022-10-16T12:41:24;23.70;52.90
30148;DHT22;16960;49.404;8.248;2022-10-16T12:43:51;23.70;52.90
30148;DHT22;16960;49.404;8.248;2022-10-16T12:46:37;23.70;53.10
30148;DHT22;16960;49.404;8.248;2022-10-16T12:49:19;23.70;53.50
30148;DHT22;16960;49.404;8.248;2022-10-16T12:51:48;23.70;53.70
30148;DHT22;16960;49.404;8.248;2022-10-16T12:54:17;23.70;53.30
30148;DHT22;16960;49.404;8.248;2022-10-16T12:56:53;23.70;53.40
30148;DHT22;16960;49.404;8.248;2022-10-16T12:59:29;23.70;53.50
30148;DHT22;16960;49.404;8.248;2022-10-16T13:05:10;23.70;53.60
30148;DHT22;16960;49.404;8.248;2022-10-16T13:07:52;23.70;53.80
30148;DHT22;16960;49.404;8.248;2022-10-16T13:10:26;23.70;53.90
30148;DHT22;16960;49.404;8.248;2022-10-16T13:16:03;23.70;54.60
30148;DHT22;16960;49.404;8.248;2022-10-16T13:18:40;23.70;54.70
30148;DHT22;16960;49.404;8.248;2022-10-16T13:21:31;23.70;55.20
30148;DHT22;16960;49.404;8.248;2022-10-16T13:24:06;23.70;54.90
30148;DHT22;16960;49.404;8.248;2022-10-16T13:26:44;23.70;54.60
30148;DHT22;16960;49.404;8.248;2022-10-16T13:29:13;23.70;54.40
30148;DHT22;16960;49.404;8.248;2022-10-16T13:31:40;23.70;54.40
30148;DHT22;16960;49.404;8.248;2022-10-16T13:34:12;23.70;54.30
30148;DHT22;16960;49.404;8.248;2022-10-16T13:36:44;23.60;54.20
30148;DHT22;16960;49.404;8.248;2022-10-16T13:39:14;23.60;54.40
30148;DHT22;16960;49.404;8.248;2022-10-16T13:41:43;23.70;54.60
30148;DHT22;16960;49.404;8.248;2022-10-16T13:44:15;23.60;54.60
30148;DHT22;16960;49.404;8.248;2022-10-16T13:46:44;23.60;54.80
30148;DHT22;16960;49.404;8.248;2022-10-16T13:49:14;23.60;54.80
30148;DHT22;16960;49.404;8.248;2022-10-16T13:51:53;23.60;54.80
30148;DHT22;16960;49.404;8.248;2022-10-16T13:54:22;23.50;55.00
30148;DHT22;16960;49.404;8.248;2022-10-16T13:56:49;23.50;55.50
30148;DHT22;16960;49.404;8.248;2022-10-16T13:59:24;23.50;55.70
30148;DHT22;16960;49.404;8.248;2022-10-16T14:01:54;23.50;55.70
30148;DHT22;16960;49.404;8.248;2022-10-16T14:04:23;23.50;55.60
30148;DHT22;16960;49.404;8.248;2022-10-16T14:06:51;23.60;55.90
30148;DHT22;16960;49.404;8.248;2022-10-16T14:09:24;23.50;56.00
30148;DHT22;16960;49.404;8.248;2022-10-16T14:11:53;23.60;56.10
30148;DHT22;16960;49.404;8.248;2022-10-16T14:14:22;23.50;56.40
30148;DHT22;16960;49.404;8.248;2022-10-16T14:16:49;23.60;56.10
30148;DHT22;16960;49.404;8.248;2022-10-16T14:19:20;23.50;55.80
30148;DHT22;16960;49.404;8.248;2022-10-16T14:21:49;23.50;55.60
30148;DHT22;16960;49.404;8.248;2022-10-16T14:24:26;23.50;55.50
30148;DHT22;16960;49.404;8.248;2022-10-16T14:26:54;23.50;55.70
30148;DHT22;16960;49.404;8.248;2022-10-16T14:29:23;23.60;55.70
30148;DHT22;16960;49.404;8.248;2022-10-16T14:31:54;23.50;55.50
30148;DHT22;16960;49.404;8.248;2022-10-16T14:34:24;23.60;55.90
30148;DHT22;16960;49.404;8.248;2022-10-16T14:36:53;23.50;56.20
30148;DHT22;16960;49.404;8.248;2022-10-16T14:39:21;23.50;56.60
30148;DHT22;16960;49.404;8.248;2022-10-16T14:41:51;23.60;56.30
30148;DHT22;16960;49.404;8.248;2022-10-16T14:44:19;23.50;56.50
30148;DHT22;16960;49.404;8.248;2022-10-16T14:46:48;23.50;56.50
30148;DHT22;16960;49.404;8.248;2022-10-16T14:49:17;23.50;56.50
30148;DHT22;16960;49.404;8.248;2022-10-16T14:51:45;23.50;56.80
30148;DHT22;16960;49.404;8.248;2022-10-16T14:54:13;23.50;56.70
30148;DHT22;16960;49.404;8.248;2022-10-16T14:56:46;23.50;56.60
30148;DHT22;16960;49.404;8.248;2022-10-16T14:59:19;23.50;56.80
30148;DHT22;16960;49.404;8.248;2022-10-16T15:01:48;23.50;56.70
30148;DHT22;16960;49.404;8.248;2022-10-16T15:04:15;23.50;56.80
30148;DHT22;16960;49.404;8.248;2022-10-16T15:06:43;23.50;56.70
30148;DHT22;16960;49.404;8.248;2022-10-16T15:09:10;23.50;56.80
30148;DHT22;16960;49.404;8.248;2022-10-16T15:11:37;23.50;56.80
30148;DHT22;16960;49.404;8.248;2022-10-16T15:14:04;23.50;56.70
30148;DHT22;16960;49.404;8.248;2022-10-16T15:16:32;23.50;56.80
30148;DHT22;16960;49.404;8.248;2022-10-16T15:18:59;23.60;56.60
30148;DHT22;16960;49.404;8.248;2022-10-16T15:21:29;23.50;56.60
30148;DHT22;16960;49.404;8.248;2022-10-16T15:23:57;23.60;56.60
30148;DHT22;16960;49.404;8.248;2022-10-16T15:26:24;23.50;56.60
30148;DHT22;16960;49.404;8.248;2022-10-16T15:28:51;23.50;56.60
30148;DHT22;16960;49.404;8.248;2022-10-16T15:31:19;23.50;56.60
30148;DHT22;16960;49.404;8.248;2022-10-16T15:33:49;23.50;56.50
30148;DHT22;16960;49.404;8.248;2022-10-16T15:36:25;23.50;56.40
30148;DHT22;16960;49.404;8.248;2022-10-16T15:38:52;23.50;56.50
30148;DHT22;16960;49.404;8.248;2022-10-16T15:41:19;23.60;56.40
30148;DHT22;16960;49.404;8.248;2022-10-16T15:43:48;23.50;56.30
30148;DHT22;16960;49.404;8.248;2022-10-16T15:46:17;23.60;56.30
30148;DHT22;16960;49.404;8.248;2022-10-16T15:48:44;23.60;56.10
30148;DHT22;16960;49.404;8.248;2022-10-16T15:51:12;23.60;56.00
30148;DHT22;16960;49.404;8.248;2022-10-16T15:53:39;23.60;56.10
30148;DHT22;16960;49.404;8.248;2022-10-16T15:56:08;23.60;55.90
30148;DHT22;16960;49.404;8.248;2022-10-16T15:58:36;23.60;55.80